Medalanes, New Mexico
Current Conditions -  °F | °C
As of 7:55 AM on Thursday 23 Oct 2014 (Local Time) from KLAM Reporting Station
Clear Clear  
Wind Chill: 47°   Ceiling: Unl
Heat Index: 47°   Visibility: 10mi
Dew Point: 33°   Wind: 0mph
Humidity: 59%   Direction: NA
Pressure: 30.35"   Gusts: NA
Location:  36.1769°N, 106.184°W
Report Text: KLAM 231355Z AUTO 00000KT 10SM CLR 08/01 A3035 RMK AO2 T00810006
Loading
Personal Weather Stations






























Interactive Weather Map
Tropical Storm Tracking
New forecast layout! Learn more

10-Day Weather Forecast

Advertisements
Track Severe Weather on mobile